Harare, Zimbabwe
Current Conditions -  °F | °C
As of 8:00 PM on Friday 31 Oct 2014 (Local Time) from FVHA Reporting Station
Clear Clear  
Wind Chill: 73°   Ceiling: Unl
Heat Index: 73°   Visibility: 6mi
Dew Point: 41°   Wind: 9mph
Humidity: 31%   Direction: 80°E
Pressure: 30.12"   Gusts: NA
Location:  17.82°S, 31.05°E
Report Text: FVHA 311800Z 08008KT CAVOK 23/05 Q1020 NOSIG
Loading
Personal Weather Stations






























Interactive Weather Map
Tropical Storm Tracking
New forecast layout! Learn more

10-Day Weather Forecast

Advertisements
Track Severe Weather on mobile